Latest Coastal Weather Observations for Yarram Airport

IDV60701

Issued at 2:52 am EST Tuesday 30 May 2017 (issued every 10 minutes, with the page automatically refreshed every 10 minutes)

About coastal observations | Map of coastal stations | Coastal observations for VIC | Marine services | Other Formats
Station Details ID: 085151 Name: YARRAM AIRPORT Lat: -38.56 Lon: 146.75 Height: 17.9 m
Data from the previous 72 hours. | See also: Recent months at Yarram Airport
Date/Time
EST
Temp
°C
Wind Pressure Rain since
9am
mm
Weather Cloud Vis
km
Sea
Height
m
Swell
Dir  Spd
kts
Gust
kts
hPa Trend Height
m
Period
s
Dir
30/02:30am 10.9 NW 12 18 1016.9 - 0.0 - - - - - - -
30/02:00am 10.5 NW 11 14 1017.2 - 0.0 - - - - - - -
30/01:30am 9.9 NNW 7 11 1017.2 - 0.0 - - - - - - -
30/01:00am 10.0 NW 13 16 1017.2 - 0.0 - - - - - - -
30/12:30am 9.7 NW 9 13 1017.6 - 0.0 - - - - - - -
30/12:00am 10.0 NW 9 13 1017.8 - 0.0 - - - - - - -
 
Date/Time
EST
Temp
°C
Wind Pressure Rain since
9am
mm
Weather Cloud Vis
km
Sea
Height
m
Swell
Dir  Spd
kts
Gust
kts
hPa Trend Height
m
Period
s
Dir
29/11:30pm 9.9 NW 9 15 1018.1 - 0.0 - - - - - - -
29/11:00pm 9.0 NW 7 10 1018.0 - 0.0 - - - - - - -
29/10:30pm 8.5 NW 6 8 1018.4 - 0.0 - - - - - - -
29/10:00pm 8.3 WNW 6 8 1018.7 - 0.0 - - - - - - -
29/09:30pm 10.2 NNW 10 15 1018.5 - 0.0 - - - - - - -
29/09:00pm 9.6 NNW 9 12 1018.6 - 0.0 - - - - - - -
29/08:30pm 9.6 NW 10 13 1018.9 - 0.0 - - - - - - -
29/08:00pm 9.6 NW 9 13 1019.1 - 0.0 - - - - - - -
29/07:30pm 8.9 NW 9 10 1019.0 - 0.0 - - - - - - -
29/07:00pm 8.8 NNW 6 9 1018.8 - 0.0 - - - - - - -
29/06:30pm 9.0 NW 7 10 1018.6 - 0.0 - - - - - - -
29/06:00pm 8.3 NW 7 9 1018.4 - 0.0 - - - - - - -
29/05:30pm 9.1 WNW 7 8 1018.3 - 0.0 - - - - - - -
29/05:00pm 10.5 WNW 11 16 1018.1 - 0.0 - - - - - - -
29/04:30pm 11.5 WNW 12 17 1018.0 - 0.0 - - - - - - -
29/04:00pm 12.3 WNW 16 22 1017.9 - 0.0 - - - - - - -
29/03:30pm 12.5 WNW 15 21 1017.8 - 0.0 - - - - - - -
29/03:00pm 13.0 WNW 15 20 1017.6 - 0.0 - - - - - - -
29/02:30pm 13.3 WNW 12 17 1017.3 - 0.0 - - - - - - -
29/02:00pm 13.0 WNW 15 20 1017.2 - 0.0 - - - - - - -
29/01:30pm 13.1 WNW 15 21 1017.2 - 0.0 - - - - - - -
29/01:00pm 12.2 W 16 23 1017.1 - 0.0 - - - - - - -
29/12:30pm 11.8 WNW 19 26 1017.3 - 0.0 - - - - - - -
29/12:00pm 11.4 WNW 17 21 1017.6 - 0.0 - - - - - - -
29/11:30am 11.9 W 16 23 1017.5 - 0.0 - - - - - - -
29/11:00am 11.0 WNW 15 22 1017.6 - 0.0 - - - - - - -
29/10:30am 10.6 WNW 14 20 1017.4 - 0.0 - - - - - - -
29/10:00am 10.3 WNW 12 19 1017.2 - 0.0 - - - - - - -
29/09:46am 10.0 WNW 15 25 1017.0 - 0.0 - - - - - - -
29/09:30am 10.2 WNW 15 20 1016.9 - 0.0 - - - - - - -
29/09:00am 9.8 NW 12 17 1016.7 - 4.4 - - - - - - -
29/08:30am 8.9 WNW 10 13 1016.4 - 4.4 - - - - - - -
29/08:00am 8.7 WNW 12 17 1016.0 - 4.4 - - - - - - -
29/07:30am 8.1 WNW 15 18 1015.2 - 4.2 - - - - - - -
29/07:00am 7.9 WNW 13 17 1015.1 - 4.2 - - - - - - -
29/06:30am 7.7 WNW 11 14 1014.6 - 4.2 - - - - - - -
29/06:00am 8.1 WNW 14 20 1014.3 - 4.2 - - - - - - -
29/05:30am 7.8 WNW 10 14 1013.9 - 4.2 - - - - - - -
29/05:00am 8.2 WNW 11 16 1013.4 - 4.2 - - - - - - -
29/04:30am 7.8 NW 11 15 1013.1 - 4.2 - - - - - - -
29/04:00am 8.1 WNW 13 19 1012.9 - 4.2 - - - - - - -
29/03:30am 7.3 WNW 10 13 1012.6 - 4.2 - - - - - - -
29/03:00am 7.5 WNW 12 15 1012.6 - 4.2 Recent precip. - - - - - -
29/02:30am 7.3 WNW 11 15 1012.5 - 4.2 - - - - - - -
29/02:00am 7.9 W 15 22 1012.2 - 3.8 - - - - - - -
29/01:30am 7.5 WNW 11 15 1011.7 - 3.8 - - - - - - -
29/01:00am 7.6 WNW 12 16 1011.4 - 3.8 - - - - - - -
29/12:30am 7.8 WNW 11 15 1011.5 - 3.8 - - - - - - -
29/12:00am 7.6 WNW 15 20 1011.1 - 3.8 Recent precip. - - - - - -
 
Date/Time
EST
Temp
°C
Wind Pressure Rain since
9am
mm
Weather Cloud Vis
km
Sea
Height
m
Swell
Dir  Spd
kts
Gust
kts
hPa Trend Height
m
Period
s
Dir
28/11:30pm 7.4 WNW 11 15 1011.1 - 3.8 - - - - - - -
28/11:00pm 7.7 W 13 19 1011.0 - 3.6 - - - - - - -
28/10:30pm 7.1 WNW 10 15 1010.5 - 3.6 - - - - - - -
28/10:00pm 7.5 WNW 13 17 1010.3 - 3.6 - - - - - - -
28/09:30pm 8.2 WNW 14 23 1010.2 - 3.4 - - - - - - -
28/09:23pm 8.4 WNW 13 23 1010.2 - 3.4 - - - - - - -
28/09:00pm 8.0 WNW 7 9 1010.0 - 3.4 Recent precip. - - - - - -
28/08:30pm 7.9 W 8 11 1009.6 - 3.4 - - - - - - -
28/08:00pm 8.0 WNW 8 11 1009.5 - 3.2 - - - - - - -
28/07:30pm 8.2 WNW 8 11 1009.1 - 3.0 - - - - - - -
28/07:00pm 7.8 W 5 6 1008.8 - 2.4 - - - - - - -
28/06:30pm 7.9 WNW 6 8 1008.3 - 2.4 - - - - - - -
28/06:00pm 7.6 CALM 0 0 1007.9 - 2.4 - - - - - - -
28/05:30pm 8.1 NW 3 5 1007.6 - 2.4 - - - - - - -
28/05:00pm 8.8 W 7 10 1007.6 - 2.4 - - - - - - -
28/04:30pm 9.2 WSW 5 7 1007.2 - 1.2 - - - - - - -
28/04:00pm 9.5 W 4 6 1006.8 - 1.2 - - - - - - -
28/03:30pm 9.1 WSW 7 13 1006.5 - 1.0 - - - - - - -
28/03:00pm 9.4 SW 19 25 1006.2 - 0.0 - - - - - - -
28/02:30pm 12.2 W 12 19 1005.7 - 0.0 - - - - - - -
28/02:00pm 13.6 WNW 15 19 1005.5 - 0.0 - - - - - - -
28/01:30pm 13.1 WNW 16 22 1005.4 - 0.0 - - - - - - -
28/01:00pm 12.9 WNW 17 25 1005.1 - 0.0 - - - - - - -
28/12:54pm 13.2 WNW 15 25 1005.0 - 0.0 - - - - - - -
28/12:30pm 13.9 NW 17 25 1005.1 - 0.0 - - - - - - -
28/12:00pm 13.2 WNW 11 17 1005.3 - 0.0 - - - - - - -
28/11:30am 11.9 WNW 15 21 1005.9 - 0.0 - - - - - - -
28/11:00am 12.3 WNW 17 23 1006.1 - 0.0 - - - - - - -
28/10:30am 13.1 WNW 12 17 1006.2 - 0.0 - - - - - - -
28/10:00am 12.3 WNW 14 19 1006.1 - 0.0 - - - - - - -
28/09:30am 11.8 WNW 11 15 1006.2 - 0.0 - - - - - - -
28/09:00am 10.8 WNW 9 13 1006.1 - 2.2 - - - - - - -
28/08:30am 10.2 WNW 7 9 1005.9 - 2.2 - - - - - - -
28/08:00am 10.3 WNW 7 11 1005.7 - 2.2 - - - - - - -
28/07:30am 9.7 SW 5 7 1005.5 - 2.2 - - - - - - -
28/07:00am 9.8 W 5 7 1005.4 - 2.2 - - - - - - -
28/06:30am 10.1 WSW 6 8 1005.5 - 2.2 - - - - - - -
28/06:00am 9.9 SW 7 7 1005.5 - 2.2 - - - - - - -
28/05:30am 10.7 NW 9 11 1005.2 - 2.2 - - - - - - -
28/05:00am 11.4 NNW 10 13 1005.2 - 2.2 - - - - - - -
28/04:30am 10.8 NNW 9 14 1005.4 - 2.2 - - - - - - -
28/04:00am 10.3 NNW 7 8 1005.9 - 2.2 - - - - - - -
28/03:30am 10.7 WNW 15 22 1007.1 - 1.8 - - - - - - -
28/03:04am 14.2 NNW 14 35 1006.9 - 0.0 - - - - - - -
28/03:00am 15.6 NNW 13 17 1005.5 - 0.0 - - - - - - -
28/02:30am 15.0 N 12 17 1005.0 - 0.0 - - - - - - -
28/02:00am 15.1 N 12 16 1005.5 - 0.0 - - - - - - -
28/01:30am 14.2 N 12 16 1006.0 - 0.0 - - - - - - -
28/01:00am 13.9 N 8 11 1006.7 - 0.0 - - - - - - -
28/12:30am 12.2 ENE 5 7 1007.4 - 0.0 - - - - - - -
28/12:00am 12.8 NE 5 8 1008.0 - 0.0 - - - - - - -
 
Date/Time
EST
Temp
°C
Wind Pressure Rain since
9am
mm
Weather Cloud Vis
km
Sea
Height
m
Swell
Dir  Spd
kts
Gust
kts
hPa Trend Height
m
Period
s
Dir
27/11:30pm 13.5 E 4 5 1008.5 - 0.0 - - - - - - -
27/11:00pm 15.6 NNE 8 12 1008.6 - 0.0 - - - - - - -
27/10:30pm 15.1 N 9 13 1009.0 - 0.0 - - - - - - -
27/10:00pm 14.0 ENE 7 9 1009.5 - 0.0 - - - - - - -
27/09:30pm 13.7 ENE 6 8 1009.8 - 0.0 - - - - - - -
27/09:00pm 14.2 NE 9 12 1010.1 - 0.0 - - - - - - -
27/08:30pm 13.7 NE 7 9 1010.7 - 0.0 - - - - - - -
27/08:00pm 14.3 NNE 7 10 1010.9 - 0.0 - - - - - - -
27/07:30pm 15.0 NNE 10 12 1011.1 - 0.0 - - - - - - -
27/07:00pm 15.4 N 10 12 1011.3 - 0.0 - - - - - - -
27/06:30pm 14.7 N 10 11 1011.4 - 0.0 - - - - - - -
27/06:00pm 15.2 N 8 12 1011.4 - 0.0 - - - - - - -
27/05:30pm 13.4 N 7 10 1011.6 - 0.0 - - - - - - -
27/05:00pm 14.3 N 8 10 1011.6 - 0.0 - - - - - - -
27/04:30pm 15.0 N 8 9 1011.6 - 0.0 - - - - - - -
27/04:00pm 15.4 N 7 8 1011.8 - 0.0 - - - - - - -
27/03:30pm 16.2 N 6 7 1012.2 - 0.0 - - - - - - -
27/03:00pm 17.2 N 6 8 1012.3 - 0.0 - - - - - - -
27/02:30pm 17.4 N 7 8 1012.6 - 0.0 - - - - - - -
27/02:00pm 17.8 NNE 8 10 1013.1 - 0.0 - - - - - - -
27/01:30pm 18.2 N 7 10 1013.7 - 0.0 - - - - - - -
27/01:00pm 18.0 N 9 13 1014.2 - 0.0 - - - - - - -
27/12:30pm 18.8 N 9 13 1014.7 - 0.0 - - - - - - -
27/12:00pm 18.5 N 9 12 1015.5 - 0.0 - - - - - - -
27/11:30am 18.0 NNW 9 13 1016.0 - 0.0 - - - - - - -
27/11:00am 17.4 N 10 13 1016.5 - 0.0 - - - - - - -
27/10:30am 16.1 N 7 10 1016.9 - 0.0 - - - - - - -
27/10:00am 14.0 N 6 7 1017.3 - 0.0 - - - - - - -
27/09:30am 12.8 NNE 5 6 1017.6 - 0.0 - - - - - - -
27/09:00am 12.3 NNE 5 5 1017.8 - 0.0 - - - - - - -
27/08:30am 11.5 NE 5 6 1017.9 - 0.0 - - - - - - -
27/08:00am 11.0 NNE 7 8 1017.9 - 0.0 - - - - - - -
27/07:30am 9.5 NNE 8 9 1017.8 - 0.0 - - - - - - -
27/07:00am 9.7 NNE 5 7 1017.9 - 0.0 - - - - - - -
27/06:30am 9.7 N 7 9 1017.6 - 0.0 - - - - - - -
27/06:00am 8.1 N 8 9 1017.6 - 0.0 - - - - - - -
27/05:30am 7.8 NNE 7 7 1017.7 - 0.0 - - - - - - -
27/05:00am 7.6 NNE 9 10 1017.6 - 0.0 - - - - - - -
27/04:30am 6.7 NNE 5 7 1017.8 - 0.0 - - - - - - -
27/04:00am 8.3 N 7 8 1018.0 - 0.0 - - - - - - -
27/03:30am 7.2 N 7 8 1018.2 - 0.0 - - - - - - -
27/03:00am 5.4 N 4 5 1018.6 - 0.0 - - - - - - -

Other Formats:

Comma delimited format used in spreadsheet applications
http://www.bom.gov.au/fwo/IDV60701/IDV60701.95890.axf

JavaScript Object Notation format (JSON) in row-major order
http://www.bom.gov.au/fwo/IDV60701/IDV60701.95890.json